createdAt,value
2023-03-14T00:01:27.857Z,18.85
2023-03-14T00:03:52.689Z,18.50
2023-03-14T00:06:17.814Z,22.75
2023-03-14T00:08:44.349Z,24.00
2023-03-14T00:11:10.257Z,21.77
2023-03-14T00:13:34.671Z,21.25
2023-03-14T00:16:05.206Z,21.42
2023-03-14T00:18:31.113Z,15.70
2023-03-14T00:20:55.419Z,23.25
2023-03-14T00:23:20.113Z,24.98
2023-03-14T00:25:44.514Z,20.23
2023-03-14T00:28:08.943Z,30.10
2023-03-14T00:30:33.379Z,34.28
2023-03-14T00:32:57.899Z,28.00
2023-03-14T00:35:23.639Z,28.20
2023-03-14T00:37:47.962Z,27.45
2023-03-14T00:40:13.258Z,26.08
2023-03-14T00:42:37.758Z,27.15
2023-03-14T00:45:02.086Z,30.98
2023-03-14T00:47:27.475Z,28.15
2023-03-14T00:49:51.795Z,26.05
2023-03-14T00:52:18.478Z,23.20
2023-03-14T00:54:42.937Z,24.15
2023-03-14T00:57:07.367Z,26.58
2023-03-14T00:59:31.868Z,24.15
2023-03-14T01:01:56.410Z,30.88
2023-03-14T01:04:20.838Z,31.27
2023-03-14T01:06:45.175Z,28.88
2023-03-14T01:09:11.103Z,23.67
2023-03-14T01:11:37.048Z,25.15
2023-03-14T01:14:03.116Z,23.45
2023-03-14T01:16:29.126Z,20.63
2023-03-14T01:18:53.727Z,20.73
2023-03-14T01:21:21.731Z,23.10
2023-03-14T01:23:47.250Z,22.38
2023-03-14T01:26:15.162Z,19.08
2023-03-14T01:28:39.660Z,22.48
2023-03-14T01:31:05.908Z,27.00
2023-03-14T01:33:31.485Z,23.20
2023-03-14T01:35:55.878Z,21.20
2023-03-14T01:38:21.453Z,24.30
2023-03-14T01:40:47.493Z,19.70
2023-03-14T01:43:19.808Z,21.65
2023-03-14T01:46:21.663Z,21.88
2023-03-14T01:48:52.722Z,22.67
2023-03-14T01:51:22.404Z,19.85
2023-03-14T01:53:48.232Z,22.70
2023-03-14T01:56:15.366Z,24.13
2023-03-14T01:58:43.626Z,21.23
2023-03-14T02:01:11.067Z,29.15
2023-03-14T02:03:41.150Z,25.02
2023-03-14T02:08:37.699Z,23.58
2023-03-14T02:13:59.770Z,24.45
2023-03-14T02:16:44.603Z,26.17
2023-03-14T02:20:03.008Z,26.33
2023-03-14T02:22:32.490Z,24.33
2023-03-14T02:25:08.885Z,26.27
2023-03-14T02:27:35.874Z,33.55
2023-03-14T02:30:03.186Z,21.02
2023-03-14T02:32:29.791Z,24.58
2023-03-14T02:34:57.809Z,26.58
2023-03-14T02:37:25.808Z,22.30
2023-03-14T02:39:50.605Z,30.30
2023-03-14T02:42:16.387Z,29.58
2023-03-14T02:44:53.359Z,26.38
2023-03-14T02:47:18.785Z,22.83
2023-03-14T02:49:44.422Z,25.85
2023-03-14T02:52:08.782Z,26.23
2023-03-14T02:54:33.162Z,28.98
2023-03-14T02:56:58.482Z,33.17
2023-03-14T02:59:22.867Z,28.33
2023-03-14T03:01:56.071Z,33.78
2023-03-14T03:04:21.732Z,22.38
2023-03-14T03:06:46.034Z,22.85
2023-03-14T03:09:11.171Z,26.15
2023-03-14T03:11:35.561Z,27.25
2023-03-14T03:14:03.380Z,33.67
2023-03-14T03:16:27.798Z,29.48
2023-03-14T03:18:53.598Z,30.15
2023-03-14T03:21:19.965Z,28.70
2023-03-14T03:23:44.415Z,29.50
2023-03-14T03:26:11.340Z,25.10
2023-03-14T03:28:35.822Z,27.85
2023-03-14T03:31:00.953Z,21.95
2023-03-14T03:33:26.709Z,28.20
2023-03-14T03:35:53.612Z,25.67
2023-03-14T03:38:25.528Z,23.02
2023-03-14T03:40:52.113Z,26.17
2023-03-14T03:43:17.281Z,21.38
2023-03-14T03:45:43.459Z,22.25
2023-03-14T03:48:08.277Z,21.25
2023-03-14T03:50:32.628Z,21.25
2023-03-14T03:52:58.837Z,20.75
2023-03-14T03:55:23.333Z,19.15
2023-03-14T03:57:47.949Z,23.35
2023-03-14T04:00:14.045Z,19.42
2023-03-14T04:02:41.271Z,21.25
2023-03-14T04:05:09.533Z,26.23
2023-03-14T04:07:35.622Z,21.35
2023-03-14T04:10:02.208Z,20.17
2023-03-14T04:12:37.750Z,16.02
2023-03-14T04:15:06.681Z,22.25
2023-03-14T04:17:31.339Z,18.27
2023-03-14T04:19:55.787Z,21.08
2023-03-14T04:22:28.040Z,20.95
2023-03-14T04:24:52.544Z,20.65
2023-03-14T04:27:20.357Z,19.67
2023-03-14T04:29:45.763Z,19.63
2023-03-14T04:32:13.542Z,21.42
2023-03-14T04:34:38.250Z,20.00
2023-03-14T04:37:02.837Z,19.67
2023-03-14T04:39:33.433Z,24.92
2023-03-14T04:42:06.895Z,15.10
2023-03-14T04:44:35.878Z,19.70
2023-03-14T04:47:00.387Z,16.55
2023-03-14T04:49:25.498Z,17.67
2023-03-14T04:51:51.931Z,18.33
2023-03-14T04:54:16.777Z,20.23
2023-03-14T04:56:41.473Z,16.25
2023-03-14T04:59:07.038Z,22.70
2023-03-14T05:01:35.650Z,26.85
2023-03-14T05:04:18.089Z,27.70
2023-03-14T05:07:09.572Z,25.17
2023-03-14T05:09:45.172Z,27.77
2023-03-14T05:12:23.877Z,31.63
2023-03-14T05:15:08.405Z,30.73
2023-03-14T05:17:48.018Z,25.88
2023-03-14T05:20:34.181Z,28.70
2023-03-14T05:23:28.073Z,28.95
2023-03-14T05:26:10.987Z,30.83
2023-03-14T05:28:54.175Z,27.73
2023-03-14T05:31:34.243Z,23.33
2023-03-14T05:34:12.471Z,24.30
2023-03-14T05:37:09.437Z,34.08
2023-03-14T05:39:45.107Z,32.13
2023-03-14T05:42:41.496Z,24.13
2023-03-14T05:45:26.152Z,18.38
2023-03-14T05:48:13.468Z,23.45
2023-03-14T05:51:00.461Z,20.88
2023-03-14T05:53:41.717Z,23.08
2023-03-14T05:56:29.268Z,20.60
2023-03-14T05:59:16.401Z,22.70
2023-03-14T06:01:56.769Z,19.23
2023-03-14T06:04:24.788Z,20.02
2023-03-14T06:06:57.067Z,18.27
2023-03-14T06:09:23.979Z,23.10
2023-03-14T06:11:50.310Z,21.45
2023-03-14T06:14:15.102Z,21.08
2023-03-14T06:16:43.860Z,19.52
2023-03-14T06:19:09.464Z,16.17
2023-03-14T06:21:35.408Z,17.63
2023-03-14T06:24:01.492Z,16.38
2023-03-14T06:26:29.572Z,17.88
2023-03-14T06:28:54.790Z,17.73
2023-03-14T06:31:20.152Z,12.25
2023-03-14T06:33:51.008Z,13.52
2023-03-14T06:36:16.578Z,13.38
2023-03-14T06:38:43.792Z,16.23
2023-03-14T06:41:12.848Z,15.82
2023-03-14T06:43:41.179Z,17.45
2023-03-14T06:46:07.319Z,16.75
2023-03-14T06:48:33.957Z,10.15
2023-03-14T06:50:59.282Z,14.45
2023-03-14T06:53:24.356Z,10.57
2023-03-14T06:55:49.416Z,11.00
2023-03-14T06:58:17.226Z,18.15
2023-03-14T07:00:43.498Z,14.15
2023-03-14T07:03:13.427Z,12.77
2023-03-14T07:05:41.818Z,19.10
2023-03-14T07:08:06.760Z,23.42
2023-03-14T07:10:31.665Z,13.82
2023-03-14T07:12:56.237Z,17.98
2023-03-14T07:15:25.732Z,19.17
2023-03-14T07:17:55.295Z,15.73
2023-03-14T07:20:21.694Z,12.50
2023-03-14T07:22:50.113Z,18.73
2023-03-14T07:25:20.366Z,12.40
2023-03-14T07:27:45.839Z,19.05
2023-03-14T07:30:11.682Z,15.25
2023-03-14T07:32:37.961Z,12.63
2023-03-14T07:35:02.694Z,17.17
2023-03-14T07:37:27.872Z,14.55
2023-03-14T07:39:52.542Z,16.38
2023-03-14T07:42:20.598Z,12.13
2023-03-14T07:45:07.963Z,18.60
2023-03-14T07:47:32.485Z,10.10
2023-03-14T07:49:58.424Z,16.60
2023-03-14T07:52:22.917Z,11.32
2023-03-14T07:54:47.369Z,12.32
2023-03-14T07:57:11.880Z,11.40
2023-03-14T07:59:36.297Z,16.35
2023-03-14T08:02:01.030Z,9.48
2023-03-14T08:04:25.480Z,11.13
2023-03-14T08:06:51.363Z,7.68
2023-03-14T08:09:16.541Z,12.20
2023-03-14T08:11:40.928Z,13.38
2023-03-14T08:14:05.374Z,13.35
2023-03-14T08:16:29.851Z,10.93
2023-03-14T08:18:54.677Z,11.98
2023-03-14T08:21:19.447Z,11.70
2023-03-14T08:23:45.370Z,12.50
2023-03-14T08:26:10.024Z,10.20
2023-03-14T08:28:34.443Z,12.73
2023-03-14T08:30:59.423Z,12.27
2023-03-14T08:33:24.130Z,10.52
2023-03-14T08:35:48.818Z,19.30
2023-03-14T08:38:13.590Z,16.55
2023-03-14T08:40:39.818Z,10.90
2023-03-14T08:43:04.502Z,11.80
2023-03-14T08:45:29.156Z,9.43
2023-03-14T08:47:53.582Z,11.45
2023-03-14T08:50:18.208Z,13.20
2023-03-14T08:52:42.737Z,10.27
2023-03-14T08:55:08.199Z,10.18
2023-03-14T08:57:34.128Z,12.25
2023-03-14T08:59:59.165Z,14.52
2023-03-14T09:02:24.030Z,8.60
2023-03-14T09:04:48.570Z,12.27
2023-03-14T09:07:13.132Z,13.65
2023-03-14T09:09:37.600Z,14.90
2023-03-14T09:12:02.092Z,10.13
2023-03-14T09:14:27.971Z,12.45
2023-03-14T09:16:52.776Z,10.43
2023-03-14T09:19:17.747Z,13.10
2023-03-14T09:21:42.216Z,10.00
2023-03-14T09:24:07.325Z,11.57
2023-03-14T09:26:31.714Z,10.70
2023-03-14T09:28:58.551Z,9.68
2023-03-14T09:31:24.482Z,7.75
2023-03-14T09:33:49.312Z,13.15
2023-03-14T09:36:13.921Z,11.23
2023-03-14T09:38:38.348Z,9.45
2023-03-14T09:41:05.210Z,18.75
2023-03-14T09:43:33.856Z,11.50
2023-03-14T09:46:00.461Z,10.52
2023-03-14T09:48:31.954Z,10.65
2023-03-14T09:50:59.081Z,9.82
2023-03-14T10:11:30.917Z,14.13
2023-03-14T10:14:08.422Z,7.45
2023-03-14T10:16:35.022Z,9.13
2023-03-14T10:19:05.774Z,17.00
2023-03-14T10:21:34.376Z,12.93
2023-03-14T10:24:20.720Z,12.32
2023-03-14T10:26:49.823Z,11.50
2023-03-14T10:29:15.125Z,8.35
2023-03-14T10:34:25.473Z,13.73
2023-03-14T10:36:56.089Z,7.13
2023-03-14T10:39:31.191Z,10.38
2023-03-14T10:42:03.898Z,6.47
2023-03-14T10:44:28.506Z,7.72
2023-03-14T10:47:00.340Z,4.18
2023-03-14T10:49:30.904Z,7.03
2023-03-14T10:51:55.324Z,8.43
2023-03-14T10:54:24.826Z,3.75
2023-03-14T10:57:00.500Z,8.80
2023-03-14T10:59:25.021Z,6.95
2023-03-14T11:01:56.562Z,7.63
2023-03-14T11:04:40.241Z,10.15
2023-03-14T11:07:11.901Z,8.25
2023-03-14T11:09:42.298Z,6.78
2023-03-14T11:12:27.417Z,7.82
2023-03-14T11:14:59.965Z,7.97
2023-03-14T11:17:32.251Z,6.15
2023-03-14T11:20:13.239Z,4.32
2023-03-14T11:22:43.306Z,7.75
2023-03-14T11:25:17.695Z,6.18
2023-03-14T11:38:16.822Z,5.38
2023-03-14T11:40:42.753Z,8.30
2023-03-14T11:43:16.092Z,7.97
2023-03-14T11:45:43.326Z,5.60
2023-03-14T11:48:20.064Z,7.00
2023-03-14T11:50:46.286Z,3.95
2023-03-14T11:53:17.958Z,5.45
2023-03-14T11:55:46.081Z,4.32
2023-03-14T11:58:17.768Z,6.05
2023-03-14T12:00:44.091Z,6.45
2023-03-14T12:03:16.958Z,8.77
2023-03-14T12:05:54.843Z,7.35
2023-03-14T12:08:49.775Z,7.70
2023-03-14T12:11:25.832Z,5.63
2023-03-14T12:13:52.350Z,4.70
2023-03-14T12:16:32.163Z,6.88
2023-03-14T12:18:56.672Z,6.05
2023-03-14T12:21:21.863Z,6.60
2023-03-14T12:23:51.665Z,7.80
2023-03-14T12:26:19.064Z,5.43
2023-03-14T12:28:46.549Z,9.45
2023-03-14T12:31:39.901Z,7.32
2023-03-14T12:34:05.762Z,6.55
2023-03-14T12:36:57.629Z,6.03
2023-03-14T12:39:38.132Z,7.57
2023-03-14T12:42:06.561Z,9.23
2023-03-14T12:44:50.664Z,8.05
2023-03-14T12:48:03.660Z,4.38
2023-03-14T12:50:34.221Z,5.88
2023-03-14T12:53:25.810Z,9.48
2023-03-14T12:55:56.521Z,4.40
2023-03-14T12:58:31.768Z,3.17
2023-03-14T13:00:59.344Z,5.20
2023-03-14T13:03:29.042Z,4.97
2023-03-14T13:05:58.961Z,6.45
2023-03-14T13:08:38.354Z,6.30
2023-03-14T13:11:14.357Z,11.27
2023-03-14T13:13:43.062Z,3.03
2023-03-14T13:16:07.811Z,11.70
2023-03-14T13:18:37.829Z,4.97
2023-03-14T13:21:05.585Z,4.05
2023-03-14T13:23:31.972Z,5.20
2023-03-14T13:25:56.636Z,6.82
2023-03-14T13:28:23.540Z,4.03
2023-03-14T13:30:49.529Z,5.82
2023-03-14T13:33:16.980Z,4.55
2023-03-14T13:35:44.599Z,3.25
2023-03-14T13:38:20.632Z,3.25
2023-03-14T13:40:46.491Z,3.30
2023-03-14T13:43:18.436Z,4.20
2023-03-14T13:45:52.862Z,3.28
2023-03-14T13:48:17.875Z,10.00
2023-03-14T13:50:54.099Z,3.90
2023-03-14T13:53:18.620Z,3.58
2023-03-14T13:55:43.210Z,5.60
2023-03-14T13:58:23.188Z,2.83
2023-03-14T14:03:21.523Z,2.78
2023-03-14T14:05:47.404Z,6.43
2023-03-14T14:08:14.050Z,7.30
2023-03-14T14:10:40.022Z,2.55
2023-03-14T14:13:07.964Z,2.88
2023-03-14T14:15:36.033Z,5.53
2023-03-14T14:18:04.097Z,5.47
2023-03-14T14:20:36.087Z,2.40
2023-03-14T14:23:02.626Z,3.78
2023-03-14T14:25:27.055Z,2.78
2023-03-14T14:27:53.180Z,5.70
2023-03-14T14:30:35.616Z,5.82
2023-03-14T14:33:20.448Z,3.72
2023-03-14T14:35:54.107Z,5.03
2023-03-14T14:38:23.247Z,3.40
2023-03-14T14:40:50.303Z,7.53
2023-03-14T14:43:23.166Z,8.55
2023-03-14T14:45:51.419Z,2.58
2023-03-14T14:48:16.356Z,2.40
2023-03-14T14:50:42.245Z,6.43
2023-03-14T14:53:24.581Z,3.22
2023-03-14T14:55:53.450Z,6.28
2023-03-14T14:58:25.078Z,2.25
2023-03-14T15:00:55.537Z,5.40
2023-03-14T15:03:20.185Z,16.70
2023-03-14T15:05:44.719Z,3.75
2023-03-14T15:08:13.085Z,4.65
2023-03-14T15:10:37.523Z,4.45
2023-03-14T15:13:02.031Z,4.20
2023-03-14T15:15:26.483Z,4.82
2023-03-14T15:17:50.971Z,3.50
2023-03-14T15:20:17.410Z,3.20
2023-03-14T15:22:42.030Z,3.45
2023-03-14T15:25:12.998Z,8.77
2023-03-14T15:27:46.020Z,4.85
2023-03-14T15:30:12.938Z,3.13
2023-03-14T15:32:37.439Z,3.28
2023-03-14T15:35:02.035Z,5.35
2023-03-14T15:37:28.530Z,7.85
2023-03-14T15:39:53.167Z,5.65
2023-03-14T15:42:19.074Z,6.70
2023-03-14T15:44:43.775Z,17.00
2023-03-14T15:47:08.836Z,6.78
2023-03-14T15:49:33.843Z,8.05
2023-03-14T15:51:58.400Z,5.72
2023-03-14T15:54:22.956Z,7.70
2023-03-14T15:56:47.716Z,6.63
2023-03-14T15:59:13.840Z,12.98
2023-03-14T16:01:38.450Z,9.82
2023-03-14T16:04:05.151Z,13.13
2023-03-14T16:06:30.016Z,15.82
2023-03-14T16:08:54.745Z,13.68
2023-03-14T16:11:21.614Z,15.40
2023-03-14T16:13:47.118Z,15.00
2023-03-14T16:16:13.601Z,12.10
2023-03-14T16:18:41.775Z,16.83
2023-03-14T16:21:10.552Z,20.83
2023-03-14T16:23:37.608Z,18.60
2023-03-14T16:26:05.403Z,22.15
2023-03-14T16:28:29.899Z,22.02
2023-03-14T16:30:55.312Z,20.85
2023-03-14T16:33:21.247Z,20.73
2023-03-14T16:35:56.445Z,19.65
2023-03-14T16:38:21.125Z,24.10
2023-03-14T16:40:45.960Z,20.55
2023-03-14T16:45:55.346Z,29.65
2023-03-14T16:48:21.905Z,30.80
2023-03-14T16:50:46.576Z,29.20
2023-03-14T16:53:13.877Z,29.88
2023-03-14T16:55:42.503Z,33.92
2023-03-14T16:58:07.150Z,21.80
2023-03-14T17:00:32.022Z,27.98
2023-03-14T17:02:56.748Z,23.02
2023-03-14T17:05:22.621Z,23.65
2023-03-14T17:07:47.197Z,24.95
2023-03-14T17:10:12.768Z,29.10
2023-03-14T17:12:37.265Z,32.55
2023-03-14T17:15:03.787Z,26.23
2023-03-14T17:17:28.481Z,15.57
2023-03-14T17:19:53.696Z,17.90
2023-03-14T17:22:24.019Z,13.40
2023-03-14T17:24:49.855Z,16.45
2023-03-14T17:27:19.938Z,15.75
2023-03-14T17:29:46.939Z,11.45
2023-03-14T17:32:11.378Z,20.73
2023-03-14T17:34:36.421Z,18.63
2023-03-14T17:37:00.824Z,19.23
2023-03-14T17:39:26.940Z,26.50
2023-03-14T17:41:51.525Z,19.10
2023-03-14T17:44:15.981Z,25.75
2023-03-14T17:46:40.642Z,28.95
2023-03-14T17:49:05.298Z,25.60
2023-03-14T17:51:29.688Z,28.60
2023-03-14T17:53:54.340Z,28.45
2023-03-14T17:56:20.571Z,30.75
2023-03-14T17:58:46.599Z,29.83
2023-03-14T18:01:13.141Z,25.83
2023-03-14T18:03:37.677Z,23.80
2023-03-14T18:06:06.489Z,25.30
2023-03-14T18:08:31.448Z,26.05
2023-03-14T18:10:58.908Z,16.58
2023-03-14T18:13:25.848Z,20.92
2023-03-14T18:15:52.411Z,13.18
2023-03-14T18:18:16.877Z,12.93
2023-03-14T18:20:43.538Z,13.98
2023-03-14T18:23:10.502Z,10.55
2023-03-14T18:25:34.953Z,16.00
2023-03-14T18:27:59.403Z,9.18
2023-03-14T18:30:25.195Z,11.07
2023-03-14T18:32:49.686Z,13.18
2023-03-14T18:35:14.121Z,13.82
2023-03-14T18:37:38.717Z,18.85
2023-03-14T18:40:10.538Z,10.43
2023-03-14T18:42:35.036Z,10.98
2023-03-14T18:44:59.408Z,15.55
2023-03-14T18:47:26.986Z,14.35
2023-03-14T18:49:51.447Z,14.63
2023-03-14T18:52:15.919Z,12.82
2023-03-14T18:54:43.976Z,15.52
2023-03-14T18:57:08.539Z,14.23
2023-03-14T18:59:32.992Z,10.70
2023-03-14T19:01:57.470Z,9.40
2023-03-14T19:04:23.316Z,11.40
2023-03-14T19:06:50.744Z,12.68
2023-03-14T19:09:16.670Z,13.23
2023-03-14T19:11:41.265Z,15.07
2023-03-14T19:14:05.635Z,13.65
2023-03-14T19:16:30.906Z,9.55
2023-03-14T19:18:55.935Z,9.88
2023-03-14T19:21:29.885Z,14.25
2023-03-14T19:23:54.932Z,14.38
2023-03-14T19:26:19.418Z,13.60
2023-03-14T19:28:46.038Z,18.67
2023-03-14T19:31:12.248Z,8.85
2023-03-14T19:33:37.626Z,9.43
2023-03-14T19:36:02.645Z,10.70
2023-03-14T19:38:28.680Z,13.30
2023-03-14T19:40:58.342Z,11.57
2023-03-14T19:43:22.814Z,12.32
2023-03-14T19:45:47.390Z,11.25
2023-03-14T19:48:12.817Z,12.25
2023-03-14T19:50:39.665Z,13.02
2023-03-14T19:53:04.849Z,11.95
2023-03-14T19:55:34.797Z,13.82
2023-03-14T19:57:59.895Z,12.18
2023-03-14T20:00:27.502Z,8.95
2023-03-14T20:02:53.221Z,6.72
2023-03-14T20:05:19.567Z,11.55
2023-03-14T20:07:45.481Z,10.05
2023-03-14T20:10:13.119Z,10.65
2023-03-14T20:12:40.089Z,6.85
2023-03-14T20:15:05.460Z,8.85
2023-03-14T20:17:34.036Z,7.20
2023-03-14T20:19:58.614Z,6.90
2023-03-14T20:22:23.230Z,8.60
2023-03-14T20:24:49.662Z,8.65
2023-03-14T20:27:17.601Z,6.78
2023-03-14T20:29:43.857Z,8.18
2023-03-14T20:32:09.682Z,5.85
2023-03-14T20:34:35.498Z,6.25
2023-03-14T20:37:00.068Z,7.22
2023-03-14T20:39:25.078Z,8.30
2023-03-14T20:41:49.638Z,11.27
2023-03-14T20:44:14.461Z,7.05
2023-03-14T20:46:41.075Z,7.57
2023-03-14T20:49:08.896Z,9.80
2023-03-14T20:51:33.429Z,5.50
2023-03-14T20:53:58.148Z,16.73
2023-03-14T20:56:22.660Z,12.15
2023-03-14T20:58:47.189Z,13.43
2023-03-14T21:01:11.820Z,7.28
2023-03-14T21:03:37.932Z,8.93
2023-03-14T21:06:02.309Z,4.68
2023-03-14T21:08:27.506Z,8.70
2023-03-14T21:10:56.373Z,7.22
2023-03-14T21:13:20.823Z,7.10
2023-03-14T21:15:45.539Z,11.50
2023-03-14T21:18:10.573Z,5.50
2023-03-14T21:20:38.502Z,7.25
2023-03-14T21:23:04.497Z,6.53
2023-03-14T21:25:29.671Z,7.55
2023-03-14T21:27:54.054Z,6.07
2023-03-14T21:30:18.861Z,9.73
2023-03-14T21:32:43.540Z,14.57
2023-03-14T21:35:08.663Z,5.53
2023-03-14T21:37:34.817Z,8.32
2023-03-14T21:39:59.312Z,6.18
2023-03-14T21:42:24.708Z,7.28
2023-03-14T21:44:49.190Z,5.68
2023-03-14T21:47:13.653Z,7.53
2023-03-14T21:49:39.190Z,5.97
2023-03-14T21:52:05.085Z,7.85
2023-03-14T21:54:34.052Z,10.30
2023-03-14T21:56:59.759Z,4.65
2023-03-14T21:59:24.345Z,4.05
2023-03-14T22:01:53.733Z,6.97
2023-03-14T22:04:19.723Z,4.78
2023-03-14T22:06:44.664Z,4.95
2023-03-14T22:09:09.526Z,8.40
2023-03-14T22:11:35.448Z,4.57
2023-03-14T22:14:00.016Z,5.07
2023-03-14T22:16:24.607Z,4.70
2023-03-14T22:18:50.822Z,5.63
2023-03-14T22:21:15.782Z,5.88
2023-03-14T22:23:40.455Z,4.80
2023-03-14T22:26:05.252Z,5.70
2023-03-14T22:28:31.276Z,7.80
2023-03-14T22:30:55.876Z,8.00
2023-03-14T22:33:21.348Z,6.15
2023-03-14T22:35:49.471Z,8.80
2023-03-14T22:38:13.971Z,6.85
2023-03-14T22:40:39.778Z,9.98
2023-03-14T22:43:06.458Z,4.05
2023-03-14T22:45:33.090Z,8.48
2023-03-14T22:48:01.167Z,6.05
2023-03-14T22:50:25.974Z,6.55
2023-03-14T22:52:53.102Z,5.22
2023-03-14T22:55:17.899Z,7.13
2023-03-14T22:57:42.822Z,7.72
2023-03-14T23:00:13.103Z,8.25
2023-03-14T23:02:41.254Z,8.30
2023-03-14T23:05:06.402Z,6.55
2023-03-14T23:07:31.039Z,6.75
2023-03-14T23:09:55.518Z,6.90
2023-03-14T23:12:19.973Z,7.30
2023-03-14T23:14:44.511Z,9.57
2023-03-14T23:17:09.464Z,8.18
2023-03-14T23:19:39.630Z,5.63
2023-03-14T23:22:04.339Z,7.93
2023-03-14T23:24:28.812Z,6.85
2023-03-14T23:26:54.283Z,7.50
2023-03-14T23:29:18.717Z,6.50
2023-03-14T23:31:44.298Z,4.95
2023-03-14T23:34:08.923Z,4.80
2023-03-14T23:36:37.381Z,8.00
2023-03-14T23:39:01.900Z,7.63
2023-03-14T23:41:26.601Z,9.25
2023-03-14T23:43:51.182Z,7.03
2023-03-14T23:46:18.388Z,4.80
2023-03-14T23:48:47.156Z,8.18
2023-03-14T23:51:12.698Z,10.93
2023-03-14T23:53:38.593Z,10.48
2023-03-14T23:56:03.997Z,12.45
2023-03-14T23:58:29.007Z,10.18
